Terminal Aerodrome Forecast
Issued by NWS Corpus Christi, TX

Home | Current Version | Previous Version | Text Only | Print | Product List | Glossary On
Versions: 1 2 3 4 5 6 7 8 9 10 11 12 13 14 15 16 17 18
000
FTUS44 KCRP 251120
TAFVCT
TAF
KVCT 251120Z 2512/2612 04004KT P6SM SCT015 BKN150
     FM251500 04007KT P6SM VCTS BKN025CB BKN150
      TEMPO 2515/2519 4SM TSRA BKN018CB
     FM251900 06010KT P6SM VCTS BKN030CB BKN150
      TEMPO 2519/2523 3SM TSRA OVC015CB
     FM260000 09012KT P6SM SCT030 BKN150
     FM260300 10006KT P6SM SCT020 BKN150
     FM260800 07005KT P6SM VCSH BKN015 PROB30 2608/2612 5SM -TSRA
      BKN012CB=

USA.gov is the U.S. government's official web portal to all federal, state and local government web resources and services.